Warning: Javascript must be enabled to use all the features on this page!


Page Loading - Please Wait...

Click to hideNews Bulletins

Peak Streamflow for the Nation

USGS 11274500 ORESTIMBA C NR NEWMAN CA

Stanislaus County, California
Hydrologic Unit Code 18040002
Latitude  37°18'56", Longitude 121°07'27" NAD27
Drainage area 134  square miles
Gage datum 216.01 feet above NGVD29
Output formats
Table
Graph
Tab-separated file
peakfq (watstore) format
Reselect output format
Water
Year
Date Gage
Height
(feet)
Stream-
flow
(cfs)
1932 1932-02-08 5.15 4,260
1933 1933-01-29 2.30 345
1934 1934-01-01 2.61 516
1935 1935-04-08 3.56 1,320
1936 1936-02-13 3.45 1,200
1937 1937-02-13 4.28 2,180
1938 1938-02-11 4.80 3,230
1939 1939-03-09 1.82 115
1940 1940-02-27 4.90 3,440
1941 1941-04-04 4.72 3,070
1942 1942-01-24 4.05 1,880
1943 1943-01-21 5.95 6,450
1944 1944-02-29 3.53 1,290
1945 1945-02-02 5.74 5,970
1946 1945-12-25 2.87 782
1947 1947   0.00Bm
1948 1948   0.00Bm
1949 1949-03-12 2.19 335
1950 1950-02-05 1.80 175
1951 1950-12-03 4.49 2,920
1952 1952-01-12 4.70 3,660
1953 1952-12-07 1.71 147
1954 1954   0.00Bm
1955 1955-01-19 0.86 16.0
1956 1955-12-23 5.18 5,620
1957 1957-02-24 3.15 1,440
1958 1958-04-02 6.573 10,200
1959 1959-02-16 8.853 5,380
1960 1960-02-10 6.063 448
1961 1961   0.00Bm
1962 1962-02-15 7.143 1,740
1963 1963-02-01 9.723 8,300
1964 1964-01-22 5.593 156
1965 1965-01-06 6.203 560
1966 1965-12-30 5.523 128
1967 1967-01-24 7.503 4,200
1968 1968   0.00Bm
1969 1969-01-25 8.403 5,080
1970 1970-03-01 6.04 1,010
1971 1970-12-21 5.58 584
1972 1972   0.00Bm
1973 1973-02-11 6.56 1,510
1974 1974-03-03 5.98 922
1975 1975-03-08 6.08 1,010
1976 1976   0.00Bm
1977 1977   0.00Bm
1978 1978-01-17 8.03 4,360
1979 1979-02-21 6.48 1,270
1980 1980-02-16 8.48 5,210
1981 1981-01-29 6.38 1,130
1982 1982-01-05 8.54 5,550
1983 1983-01-24 8.87 6,360
1984 1983-12-25 6.27 991
1985 1985-02-09 4.08 50.0
1986 1986-02-19 9.12 6,990
1987 1987-03-06 4.09 112
1988 1988   0.00Bm
1989 1989   0.00Bm
1990 1990-05-28 3.19 4.00
1991 1991-03-24 6.02 1,260
1992 1992-02-15 5.91 888
1993 1993-01-13 7.96 4,190
1994 1994-02-20 2.61 12.0
1995 1995-03-10 9.51 12,000
1996 1996-02-19 6.27 3,130
1997 1997-01-23 6.88 3,320
1998 1998-02-03 8.80 9,470
1999 1999-02-09 4.45 833
2000 2000-02-14 5.92 2,550
2001 2001-03-05 4.64 958
2002 2002-01-03 3.92 425
2003 2002-12-16 5.99 2,790
2004 2004-02-25 6.11 2,990
2005 2005-02-16 5.51 1,820
2006 2006-01-02 5.37 1,630
2007 2007   0.00Bm
2008 2008-01-25 5.71 2,110
2009 2009-02-17 3.77 310
2010 2010-01-20 7.18 4,400
2011 2011-03-24 7.01 4,440
2012 2012   0.00Bm
2013 2012-12-24 7.75 6,250
2014 2014   0.00Bm
2015 2014-12-16 5.05 889
2016 2016-03-13 7.03 4,340
2017 2017-02-21 8.59 8,610
2018 2018-03-22 4.50 721
2019 2019-01-17 7.07 4,580
?
  Peak Gage-Height Qualification Codes.
?
  Peak Streamflow Qualification Codes.